.
WxDataArchive / Data Records for 2013-03-19
2013-03-18 March 2013 2013-03-20

Data Records for Tuesday, 19 March 2013

Time	Temp	Chill	HIndex	Humid	Dewpt	 Wind 	HiWind	WindDir	Rain 	Barom 
-----	----	-----	------	-----	-----	------	------	-------	-----	----- 
00:00	33.5	33.5	33.5	76	26.8	3	7	248	0.00	29.739 
00:05	33.2	28.5	33.2	74	25.8	5	15	248	0.00	29.739 
00:10	33.1	29.3	33.1	73	25.4	4	11	248	0.00	29.739 
00:15	32.9	29.1	32.9	72	24.9	4	11	248	0.00	29.753 
00:20	32.7	27.9	32.7	71	24.4	5	12	248	0.00	29.753 
00:25	32.4	27.5	32.4	71	24.1	5	14	248	0.00	29.753 
00:30	32.2	27.3	32.2	71	23.9	5	10	248	0.00	29.752 
00:35	31.9	26.1	31.9	70	23.2	6	15	248	0.00	29.752 
00:40	31.6	26.6	31.6	69	22.6	5	9	270	0.00	29.752 
00:45	31.5	25.6	31.5	68	22.2	6	11	270	0.00	29.754 
00:50	31.3	25.4	31.3	66	21.3	6	14	270	0.00	29.754 
00:55	31.0	23.6	31.0	64	20.3	8	17	270	0.00	29.754 
01:00	30.7	24.7	30.7	64	20.0	6	15	248	0.00	29.759 
01:05	30.4	24.3	30.4	64	19.7	6	13	248	0.00	29.759 
01:10	30.1	24.8	30.1	65	19.8	5	13	270	0.00	29.759 
01:15	30.0	24.7	30.0	67	20.4	5	13	248	0.00	29.757 
01:20	29.7	25.4	29.7	68	20.5	4	10	248	0.00	29.757 
01:25	29.5	24.1	29.5	69	20.6	5	12	248	0.00	29.757 
01:30	29.4	29.4	29.4	70	20.8	3	9	248	0.00	29.758 
01:35	29.4	25.1	29.4	71	21.2	4	13	248	0.00	29.758 
01:40	29.4	29.4	29.4	72	21.5	3	7	248	0.00	29.758 
01:45	29.3	29.3	29.3	72	21.4	3	10	248	0.00	29.764 
01:50	29.0	23.6	29.0	69	20.1	5	9	270	0.00	29.764 
01:55	28.8	24.4	28.8	68	19.6	4	11	270	0.00	29.764 
02:00	28.7	24.3	28.7	67	19.2	4	13	270	0.00	29.765 
02:05	28.4	22.8	28.4	66	18.5	5	13	270	0.00	29.765 
02:10	28.2	22.6	28.2	66	18.3	5	9	270	0.00	29.765 
02:15	28.1	22.5	28.1	66	18.2	5	9	270	0.00	29.769 
02:20	27.9	22.3	27.9	64	17.3	5	11	248	0.00	29.769 
02:25	27.8	23.2	27.8	67	18.3	4	10	270	0.00	29.769 
02:30	27.6	23.0	27.6	67	18.1	4	8	270	0.00	29.774 
02:35	27.3	21.6	27.3	67	17.8	5	10	270	0.00	29.774 
02:40	27.0	21.2	27.0	66	17.2	5	10	270	0.00	29.774 
02:45	26.9	21.1	26.9	66	17.1	5	15	270	0.00	29.788 
02:50	26.7	22.0	26.7	66	16.9	4	8	270	0.00	29.788 
02:55	26.7	22.0	26.7	67	17.2	4	7	270	0.00	29.788 
03:00	26.7	22.0	26.7	67	17.2	4	7	270	0.00	29.790 
03:05	26.6	21.8	26.6	68	17.5	4	7	270	0.00	29.790 
03:10	26.6	21.8	26.6	68	17.5	4	11	270	0.00	29.790 
03:15	26.6	21.8	26.6	68	17.5	4	7	270	0.00	29.793 
03:20	26.4	21.6	26.4	68	17.3	4	9	270	0.00	29.793 
03:25	26.3	21.5	26.3	68	17.2	4	8	270	0.00	29.793 
03:30	26.1	21.3	26.1	68	17.0	4	6	270	0.00	29.797 
03:35	26.1	26.1	26.1	69	17.3	3	7	248	0.00	29.797 
03:40	26.0	21.1	26.0	68	16.9	4	9	248	0.00	29.797 
03:45	25.8	19.8	25.8	68	16.7	5	10	270	0.00	29.801 
03:50	25.6	19.6	25.6	68	16.5	5	14	270	0.00	29.801 
03:55	25.4	20.5	25.4	69	16.7	4	11	270	0.00	29.801 
04:00	25.1	19.0	25.1	65	15.0	5	11	270	0.00	29.813 
04:05	24.7	19.6	24.7	62	13.6	4	10	270	0.00	29.813 
04:10	24.4	18.1	24.4	62	13.3	5	11	270	0.00	29.813 
04:15	24.1	16.8	24.1	61	12.6	6	13	248	0.00	29.819 
04:20	23.9	16.6	23.9	62	12.8	6	12	248	0.00	29.819 
04:25	23.9	17.6	23.9	62	12.8	5	11	270	0.00	29.819 
04:30	23.9	18.7	23.9	62	12.8	4	7	248	0.00	29.817 
04:35	23.8	16.5	23.8	61	12.3	6	14	248	0.00	29.817 
04:40	23.6	17.2	23.6	60	11.8	5	12	248	0.00	29.817 
04:45	23.5	17.1	23.5	60	11.7	5	10	248	0.00	29.823 
04:50	23.3	16.9	23.3	60	11.5	5	12	270	0.00	29.823 
04:55	23.2	23.2	23.2	62	12.1	3	9	248	0.00	29.823 
05:00	23.2	23.2	23.2	63	12.5	3	10	248	0.00	29.822 
05:05	23.0	23.0	23.0	63	12.3	3	9	270	0.00	29.822 
05:10	23.0	17.7	23.0	64	12.7	4	14	270	0.00	29.822 
05:15	23.0	17.7	23.0	64	12.7	4	9	270	0.00	29.818 
05:20	23.0	17.7	23.0	64	12.7	4	13	248	0.00	29.818 
05:25	23.0	23.0	23.0	65	13.0	3	10	248	0.00	29.818 
05:30	23.0	17.7	23.0	65	13.0	4	9	248	0.00	29.823 
05:35	23.0	17.7	23.0	64	12.7	4	12	248	0.00	29.823 
05:40	22.9	22.9	22.9	64	12.6	3	9	248	0.00	29.823 
05:45	22.9	22.9	22.9	64	12.6	3	10	248	0.00	29.821 
05:50	22.9	15.4	22.9	64	12.6	6	17	248	0.00	29.821 
05:55	22.9	16.4	22.9	64	12.6	5	13	248	0.00	29.821 
06:00	23.0	23.0	23.0	65	13.0	3	7	270	0.00	29.838 
06:05	23.2	17.9	23.2	65	13.2	4	7	248	0.00	29.838 
06:10	23.2	17.9	23.2	66	13.6	4	9	248	0.00	29.838 
06:15	23.3	23.3	23.3	66	13.6	2	4	248	0.00	29.841 
06:20	23.5	23.5	23.5	67	14.2	3	7	248	0.00	29.841 
06:25	23.5	23.5	23.5	68	14.5	3	10	248	0.00	29.841 
06:30	23.6	23.6	23.6	69	14.9	2	6	248	0.00	29.841 
06:35	23.6	18.4	23.6	68	14.6	4	11	248	0.00	29.841 
06:40	23.8	17.4	23.8	67	14.5	5	14	248	0.00	29.841 
06:45	23.8	18.6	23.8	66	14.1	4	11	248	0.00	29.838 
06:50	23.8	17.4	23.8	65	13.8	5	14	248	0.00	29.838 
06:55	23.8	17.4	23.8	64	13.4	5	13	248	0.00	29.838 
07:00	23.8	18.6	23.8	64	13.4	4	11	248	0.00	29.845 
07:05	23.8	17.4	23.8	62	12.7	5	12	248	0.00	29.845 
07:10	23.8	17.4	23.8	62	12.7	5	10	248	0.00	29.845 
07:15	23.6	18.4	23.6	62	12.5	4	12	248	0.00	29.851 
07:20	23.5	17.1	23.5	62	12.4	5	11	248	0.00	29.851 
07:25	23.3	18.0	23.3	62	12.2	4	9	248	0.00	29.851 
07:30	23.0	15.5	23.0	62	11.9	6	14	270	0.00	29.853 
07:35	22.9	16.4	22.9	62	11.9	5	13	248	0.00	29.853 
07:40	22.5	15.9	22.5	62	11.5	5	10	248	0.00	29.853 
07:45	22.2	15.6	22.2	62	11.2	5	9	270	0.00	29.857 
07:50	22.2	16.8	22.2	63	11.6	4	11	248	0.00	29.857 
07:55	22.2	22.2	22.2	64	11.9	3	8	248	0.00	29.857 
08:00	22.2	22.2	22.2	65	12.3	3	6	248	0.00	29.858 
08:05	22.4	22.4	22.4	65	12.4	2	7	248	0.00	29.858 
08:10	22.4	15.8	22.4	65	12.4	5	11	248	0.00	29.858 
08:15	22.4	15.8	22.4	64	12.1	5	12	248	0.00	29.856 
08:20	22.4	15.8	22.4	64	12.1	5	11	248	0.00	29.856 
08:25	22.4	17.0	22.4	63	11.7	4	12	248	0.00	29.856 
08:30	22.5	17.1	22.5	64	12.2	4	10	248	0.00	29.858 
08:35	22.5	14.0	22.5	63	11.8	7	16	248	0.00	29.858 
08:40	22.7	17.3	22.7	64	12.4	4	9	248	0.00	29.858 
08:45	22.9	22.9	22.9	65	12.9	3	9	248	0.00	29.856 
08:50	22.9	17.6	22.9	65	12.9	4	11	248	0.00	29.856 
08:55	22.9	22.9	22.9	67	13.6	3	7	248	0.00	29.856 
09:00	23.0	23.0	23.0	68	14.0	3	9	248	0.00	29.858 
09:05	23.0	23.0	23.0	69	14.4	3	8	248	0.00	29.858 
09:10	23.0	23.0	23.0	69	14.4	3	6	248	0.00	29.858 
09:15	23.0	16.5	23.0	70	14.7	5	12	248	0.00	29.856 
09:20	23.0	23.0	23.0	69	14.4	3	10	248	0.00	29.856 
09:25	23.0	15.5	23.0	69	14.4	6	13	248	0.00	29.856 
09:30	22.9	17.6	22.9	71	14.9	4	7	248	0.00	29.857 
09:35	22.9	22.9	22.9	73	15.6	3	8	248	0.00	29.857 
09:40	22.7	17.3	22.7	73	15.4	4	11	270	0.00	29.857 
09:45	22.7	16.2	22.7	72	15.1	5	12	248	0.00	29.858 
09:50	22.7	16.2	22.7	72	15.1	5	12	248	0.00	29.858 
09:55	22.5	15.9	22.5	69	13.9	5	12	270	0.00	29.858 
10:00	22.7	16.2	22.7	68	13.8	5	11	248	0.00	29.859 
10:05	23.2	14.9	23.2	64	12.9	7	14	270	0.00	29.859 
10:10	23.3	15.0	23.3	62	12.2	7	14	248	0.00	29.859 
10:15	23.5	17.1	23.5	63	12.8	5	10	248	0.00	29.862 
10:20	23.8	23.8	23.8	65	13.8	3	7	248	0.00	29.862 
10:25	23.9	17.6	23.9	64	13.5	5	13	248	0.00	29.862 
10:30	24.4	24.4	24.4	63	13.6	3	10	248	0.00	29.865 
10:35	24.8	19.8	24.8	61	13.3	4	12	248	0.00	29.865 
10:40	24.8	17.7	24.8	61	13.3	6	13	248	0.00	29.865 
10:45	24.4	18.1	24.4	64	14.0	5	13	270	0.00	29.872 
10:50	24.4	18.1	24.4	62	13.3	5	12	248	0.00	29.872 
10:55	24.4	16.3	24.4	60	12.5	7	15	248	0.00	29.872 
11:00	24.7	19.6	24.7	61	13.2	4	10	248	0.00	29.876 
11:05	24.7	18.5	24.7	59	12.4	5	12	270	0.00	29.876 
11:10	24.5	17.3	24.5	59	12.3	6	11	270	0.00	29.876 
11:15	25.0	20.0	25.0	60	13.1	4	12	248	0.00	29.882 
11:20	25.4	20.5	25.4	59	13.1	4	9	270	0.00	29.882 
11:25	25.8	19.8	25.8	58	13.1	5	13	248	0.00	29.882 
11:30	26.4	20.5	26.4	56	12.9	5	11	270	0.00	29.877 
11:35	26.4	20.5	26.4	56	12.9	5	11	270	0.00	29.877 
11:40	26.4	19.6	26.4	54	12.0	6	12	270	0.00	29.877 
11:45	26.7	20.9	26.7	54	12.3	5	10	270	0.00	29.881 
11:50	27.0	19.5	27.0	53	12.2	7	15	270	0.00	29.881 
11:55	27.2	20.5	27.2	53	12.4	6	13	270	0.00	29.881 
12:00	27.5	22.9	27.5	54	13.1	4	9	270	0.00	29.884 
12:05	27.5	21.8	27.5	53	12.6	5	8	248	0.00	29.884 
12:10	27.2	21.4	27.2	54	12.8	5	15	248	0.00	29.884 
12:15	27.0	20.3	27.0	54	12.6	6	13	270	0.00	29.894 
12:20	27.0	20.3	27.0	53	12.2	6	12	270	0.00	29.894 
12:25	27.0	21.2	27.0	54	12.6	5	10	270	0.00	29.894 
12:30	27.8	23.2	27.8	56	14.2	4	8	248	0.00	29.902 
12:35	27.8	21.2	27.8	54	13.3	6	14	270	0.00	29.902 
12:40	27.5	20.9	27.5	54	13.1	6	12	248	0.00	29.902 
12:45	27.2	21.4	27.2	52	11.9	5	13	270	0.00	29.907 
12:50	27.3	21.6	27.3	56	13.7	5	9	270	0.00	29.907 
12:55	27.6	21.9	27.6	54	13.2	5	10	270	0.00	29.907 
13:00	27.8	22.1	27.8	55	13.8	5	10	248	0.00	29.915 
13:05	28.1	22.5	28.1	54	13.6	5	11	248	0.00	29.915 
13:10	28.5	23.0	28.5	54	14.0	5	11	248	0.00	29.915 
13:15	28.2	22.6	28.2	53	13.3	5	12	248	0.00	29.921 
13:20	28.4	23.9	28.4	55	14.3	4	7	270	0.00	29.921 
13:25	28.8	22.4	28.8	54	14.3	6	15	248	0.00	29.921 
13:30	28.8	22.4	28.8	52	13.4	6	13	270	0.00	29.923 
13:35	28.4	22.8	28.4	54	13.9	5	12	270	0.00	29.923 
13:40	28.8	23.3	28.8	54	14.3	5	12	270	0.00	29.923 
13:45	29.1	22.8	29.1	53	14.1	6	13	248	0.00	29.926 
13:50	29.4	24.0	29.4	53	14.4	5	12	270	0.00	29.926 
13:55	29.4	24.0	29.4	52	14.0	5	10	270	0.00	29.926 
14:00	29.3	23.9	29.3	54	14.7	5	14	248	0.00	29.935 
14:05	29.8	25.5	29.8	54	15.2	4	12	270	0.00	29.935 
14:10	29.5	22.5	29.5	51	13.6	7	17	270	0.00	29.935 
14:15	29.5	24.1	29.5	52	14.1	5	13	248	0.00	29.942 
14:20	29.4	24.0	29.4	52	14.0	5	14	248	0.00	29.942 
14:25	29.3	23.0	29.3	52	13.9	6	14	270	0.00	29.942 
14:30	29.4	24.0	29.4	52	14.0	5	13	248	0.00	29.943 
14:35	29.8	24.5	29.8	53	14.8	5	10	270	0.00	29.943 
14:40	30.1	24.8	30.1	53	15.1	5	9	270	0.00	29.943 
14:45	30.4	25.2	30.4	51	14.5	5	12	270	0.00	29.947 
14:50	30.4	25.2	30.4	52	14.9	5	12	270	0.00	29.947 
14:55	30.4	24.3	30.4	50	14.0	6	16	270	0.00	29.947 
15:00	30.6	24.6	30.6	51	14.6	6	10	270	0.00	29.947 
15:05	30.9	25.8	30.9	50	14.5	5	12	270	0.00	29.947 
15:10	30.6	25.4	30.6	50	14.2	5	10	270	0.00	29.947 
15:15	31.2	26.1	31.2	49	14.3	5	11	270	0.00	29.944 
15:20	31.0	25.9	31.0	49	14.1	5	17	270	0.00	29.944 
15:25	31.0	25.0	31.0	50	14.6	6	13	270	0.00	29.944 
15:30	31.2	25.3	31.2	49	14.3	6	13	270	0.00	29.944 
15:35	31.6	27.6	31.6	49	14.7	4	9	270	0.00	29.944 
15:40	31.9	28.0	31.9	49	14.9	4	9	270	0.00	29.944 
15:45	32.2	27.3	32.2	48	14.7	5	12	270	0.00	29.950 
15:50	31.8	26.8	31.8	48	14.4	5	13	270	0.00	29.950 
15:55	32.1	26.3	32.1	47	14.2	6	17	248	0.00	29.950 
16:00	32.1	27.2	32.1	49	15.1	5	10	270	0.00	29.950 
16:05	33.1	27.5	33.1	48	15.6	6	12	270	0.00	29.950 
16:10	33.4	28.7	33.4	48	15.8	5	12	270	0.00	29.950 
16:15	34.0	29.4	34.0	46	15.4	5	13	248	0.00	29.950 
16:20	34.1	28.7	34.1	43	14.0	6	15	270	0.00	29.950 
16:25	34.0	28.6	34.0	43	13.9	6	13	248	0.00	29.950 
16:30	34.0	29.4	34.0	43	13.9	5	8	270	0.00	29.951 
16:35	34.0	29.4	34.0	46	15.4	5	11	270	0.00	29.951 
16:40	34.1	28.7	34.1	41	12.9	6	11	270	0.00	29.951 
16:45	34.0	28.6	34.0	44	14.4	6	11	270	0.00	29.952 
16:50	34.0	28.6	34.0	43	13.9	6	15	270	0.00	29.952 
16:55	34.0	28.6	34.0	44	14.4	6	12	270	0.00	29.952 
17:00	34.7	30.2	34.7	44	15.0	5	12	248	0.00	29.957 
17:05	35.0	30.6	35.0	43	14.8	5	11	248	0.00	29.957 
17:10	35.2	30.8	35.2	41	13.9	5	10	270	0.00	29.957 
17:15	35.0	30.6	35.0	42	14.3	5	9	270	0.00	29.961 
17:20	35.0	31.5	35.0	45	15.8	4	11	248	0.00	29.961 
17:25	35.3	31.9	35.3	44	15.6	4	10	270	0.00	29.961 
17:30	35.2	29.4	35.2	40	13.3	7	14	270	0.00	29.967 
17:35	34.9	29.7	34.9	39	12.5	6	11	270	0.00	29.967 
17:40	34.9	34.9	34.9	42	14.2	3	6	270	0.00	29.967 
17:45	35.0	35.0	35.0	43	14.8	3	9	248	0.00	29.967 
17:50	35.5	32.1	35.5	44	15.8	4	10	248	0.00	29.967 
17:55	35.5	30.4	35.5	40	13.6	6	15	270	0.00	29.967 
18:00	35.2	30.8	35.2	39	12.8	5	12	270	0.00	29.976 
18:05	35.2	31.8	35.2	40	13.3	4	10	270	0.00	29.976 
18:10	35.2	31.8	35.2	41	13.9	4	9	270	0.00	29.976 
18:15	35.3	31.9	35.3	41	14.0	4	9	270	0.00	29.978 
18:20	35.3	31.0	35.3	40	13.4	5	12	270	0.00	29.978 
18:25	35.2	31.8	35.2	40	13.3	4	9	270	0.00	29.978 
18:30	35.3	31.9	35.3	42	14.5	4	9	270	0.00	29.981 
18:35	35.0	31.5	35.0	39	12.6	4	10	270	0.00	29.981 
18:40	34.7	31.2	34.7	41	13.4	4	7	270	0.00	29.981 
18:45	34.7	34.7	34.7	41	13.4	3	8	270	0.00	29.989 
18:50	34.7	31.2	34.7	41	13.4	4	7	270	0.00	29.989 
18:55	34.7	31.2	34.7	41	13.4	4	11	270	0.00	29.989 
19:00	34.6	31.1	34.6	40	12.8	4	10	270	0.00	29.996 
19:05	34.4	30.8	34.4	40	12.6	4	9	270	0.00	29.996 
19:10	34.3	30.7	34.3	42	13.6	4	6	270	0.00	29.996 
19:15	34.0	30.4	34.0	40	12.2	4	10	270	0.00	30.001 
19:20	34.0	34.0	34.0	41	12.8	2	5	270	0.00	30.001 
19:25	33.8	33.8	33.8	42	13.2	2	5	270	0.00	30.001 
19:30	33.7	30.0	33.7	41	12.5	4	11	270	0.00	30.011 
19:35	33.5	29.8	33.5	40	11.8	4	8	270	0.00	30.011 
19:40	33.4	33.4	33.4	40	11.7	3	6	270	0.00	30.011 
19:45	33.1	33.1	33.1	42	12.5	3	5	248	0.00	30.012 
19:50	32.9	29.1	32.9	41	11.8	4	10	270	0.00	30.012 
19:55	32.9	32.9	32.9	41	11.8	3	7	248	0.00	30.012 
20:00	32.9	32.9	32.9	42	12.4	3	9	270	0.00	30.016 
20:05	32.8	32.8	32.8	42	12.3	3	7	248	0.00	30.016 
20:10	32.7	32.7	32.7	43	12.7	3	5	270	0.00	30.016 
20:15	32.5	32.5	32.5	43	12.5	2	4	248	0.00	30.017 
20:20	32.5	32.5	32.5	43	12.5	3	7	270	0.00	30.017 
20:25	32.5	32.5	32.5	43	12.5	3	6	248	0.00	30.017 
20:30	32.5	32.5	32.5	44	13.0	1	5	270	0.00	30.018 
20:35	32.4	32.4	32.4	44	12.9	2	6	248	0.00	30.018 
20:40	32.2	32.2	32.2	44	12.8	2	6	248	0.00	30.018 
20:45	32.1	32.1	32.1	45	13.2	1	3	248	0.00	30.030 
20:50	32.1	32.1	32.1	45	13.2	2	6	248	0.00	30.030 
20:55	32.1	32.1	32.1	46	13.7	1	4	248	0.00	30.030 
21:00	31.9	31.9	31.9	47	14.0	1	4	248	0.00	30.034 
21:05	31.8	31.8	31.8	48	14.4	1	4	270	0.00	30.034 
21:10	31.8	31.8	31.8	49	14.8	1	5	248	0.00	30.034 
21:15	31.8	31.8	31.8	51	15.8	2	6	248	0.00	30.035 
21:20	31.8	31.8	31.8	52	16.2	2	5	248	0.00	30.035 
21:25	31.8	31.8	31.8	52	16.2	2	6	248	0.00	30.035 
21:30	31.8	31.8	31.8	52	16.2	2	6	248	0.00	30.033 
21:35	31.6	31.6	31.6	53	16.5	2	5	248	0.00	30.033 
21:40	31.6	31.6	31.6	53	16.5	2	5	248	0.00	30.033 
21:45	31.6	31.6	31.6	52	16.0	2	5	248	0.00	30.035 
21:50	31.6	31.6	31.6	52	16.0	2	5	248	0.00	30.035 
21:55	31.5	31.5	31.5	52	15.9	2	4	248	0.00	30.035 
22:00	31.5	31.5	31.5	52	15.9	2	5	270	0.00	30.034 
22:05	31.5	31.5	31.5	52	15.9	2	4	270	0.00	30.034 
22:10	31.3	31.3	31.3	54	16.6	1	4	248	0.00	30.034 
22:15	31.3	31.3	31.3	54	16.6	2	5	248	0.00	30.032 
22:20	31.3	31.3	31.3	54	16.6	2	5	248	0.00	30.032 
22:25	31.3	31.3	31.3	54	16.6	2	6	248	0.00	30.032 
22:30	31.3	31.3	31.3	55	17.0	2	6	248	0.00	30.032 
22:35	31.2	31.2	31.2	54	16.5	3	6	248	0.00	30.032 
22:40	31.2	31.2	31.2	55	16.9	3	5	248	0.00	30.032 
22:45	31.2	31.2	31.2	54	16.5	2	7	248	0.00	30.033 
22:50	31.2	31.2	31.2	55	16.9	3	7	248	0.00	30.033 
22:55	31.2	31.2	31.2	55	16.9	3	9	248	0.00	30.033 
23:00	31.2	31.2	31.2	55	16.9	3	7	270	0.00	30.034 
23:05	31.2	31.2	31.2	55	16.9	3	9	248	0.00	30.034 
23:10	31.2	31.2	31.2	55	16.9	2	5	248	0.00	30.034 
23:15	31.2	31.2	31.2	54	16.5	3	13	270	0.00	30.029 
23:20	31.2	31.2	31.2	55	16.9	3	6	248	0.00	30.029 
23:25	31.0	31.0	31.0	54	16.3	3	11	270	0.00	30.029 
23:30	30.9	30.9	30.9	54	16.2	3	6	248	0.00	30.030 
23:35	30.9	30.9	30.9	54	16.2	3	6	270	0.00	30.030 
23:40	30.7	30.7	30.7	53	15.6	3	6	270	0.00	30.030 
23:45	30.7	30.7	30.7	53	15.6	3	5	270	0.00	30.034 
23:50	30.6	30.6	30.6	53	15.5	2	5	248	0.00	30.034 
23:55	30.6	26.5	30.6	53	15.5	4	7	270	0.00	30.034 

CoCoRaHS
IN-AL-39
A2 Web Hosting
Creative Commons License
GoDaddy
search engine by freefind advanced

loaded 2018-11-12 19:56:07 • last modified 2010-11-18 10:43:29
Privacy PolicyDisclaimer
• wx.awcolley.com is powered by PmWiki v.2002016 •
• all content (unless otherwise noted) © 2018 A W Colley